sensor_id;sensor_type;location;lat;lon;timestamp;P1;durP1;ratioP1;P2;durP2;ratioP2
3405;SDS011;10008;48.682;9.016;2022-10-19T00:00:24;20.70;;;11.27;;
3405;SDS011;10008;48.682;9.016;2022-10-19T00:02:50;15.63;;;10.50;;
3405;SDS011;10008;48.682;9.016;2022-10-19T00:05:15;18.53;;;11.60;;
3405;SDS011;10008;48.682;9.016;2022-10-19T00:07:41;17.10;;;11.63;;
3405;SDS011;10008;48.682;9.016;2022-10-19T00:10:08;18.70;;;11.10;;
3405;SDS011;10008;48.682;9.016;2022-10-19T00:12:34;15.97;;;11.40;;
3405;SDS011;10008;48.682;9.016;2022-10-19T00:15:00;22.37;;;11.50;;
3405;SDS011;10008;48.682;9.016;2022-10-19T00:17:26;33.07;;;13.63;;
3405;SDS011;10008;48.682;9.016;2022-10-19T00:19:52;24.70;;;14.73;;
3405;SDS011;10008;48.682;9.016;2022-10-19T00:22:17;27.53;;;14.83;;
3405;SDS011;10008;48.682;9.016;2022-10-19T00:24:43;24.03;;;14.60;;
3405;SDS011;10008;48.682;9.016;2022-10-19T00:27:10;31.00;;;15.80;;
3405;SDS011;10008;48.682;9.016;2022-10-19T00:29:35;32.60;;;16.40;;
3405;SDS011;10008;48.682;9.016;2022-10-19T00:32:02;27.50;;;15.40;;
3405;SDS011;10008;48.682;9.016;2022-10-19T00:34:27;30.10;;;15.80;;
3405;SDS011;10008;48.682;9.016;2022-10-19T00:36:53;24.20;;;15.37;;
3405;SDS011;10008;48.682;9.016;2022-10-19T00:39:19;26.90;;;15.63;;
3405;SDS011;10008;48.682;9.016;2022-10-19T00:41:46;25.00;;;14.70;;
3405;SDS011;10008;48.682;9.016;2022-10-19T00:46:38;28.27;;;14.73;;
3405;SDS011;10008;48.682;9.016;2022-10-19T00:51:38;28.13;;;15.23;;
3405;SDS011;10008;48.682;9.016;2022-10-19T00:54:07;32.80;;;17.37;;
3405;SDS011;10008;48.682;9.016;2022-10-19T00:56:34;29.40;;;15.97;;
3405;SDS011;10008;48.682;9.016;2022-10-19T00:59:04;36.07;;;16.60;;
3405;SDS011;10008;48.682;9.016;2022-10-19T01:01:30;32.93;;;15.93;;
3405;SDS011;10008;48.682;9.016;2022-10-19T01:03:58;25.20;;;14.67;;
3405;SDS011;10008;48.682;9.016;2022-10-19T01:06:24;29.83;;;14.77;;
3405;SDS011;10008;48.682;9.016;2022-10-19T01:08:51;27.57;;;15.17;;
3405;SDS011;10008;48.682;9.016;2022-10-19T01:11:20;30.00;;;15.13;;
3405;SDS011;10008;48.682;9.016;2022-10-19T01:17:05;30.00;;;16.07;;
3405;SDS011;10008;48.682;9.016;2022-10-19T01:22:47;29.40;;;15.70;;
3405;SDS011;10008;48.682;9.016;2022-10-19T01:28:46;24.17;;;14.13;;
3405;SDS011;10008;48.682;9.016;2022-10-19T01:36:59;26.10;;;14.23;;
3405;SDS011;10008;48.682;9.016;2022-10-19T01:39:55;24.57;;;13.27;;
3405;SDS011;10008;48.682;9.016;2022-10-19T01:45:30;23.17;;;12.40;;
3405;SDS011;10008;48.682;9.016;2022-10-19T01:48:12;23.90;;;13.97;;
3405;SDS011;10008;48.682;9.016;2022-10-19T01:53:34;24.60;;;14.37;;
3405;SDS011;10008;48.682;9.016;2022-10-19T01:56:05;24.67;;;13.13;;
3405;SDS011;10008;48.682;9.016;2022-10-19T01:58:34;22.93;;;12.90;;
3405;SDS011;10008;48.682;9.016;2022-10-19T02:01:04;28.90;;;14.20;;
3405;SDS011;10008;48.682;9.016;2022-10-19T02:03:33;25.47;;;13.97;;
3405;SDS011;10008;48.682;9.016;2022-10-19T02:06:01;24.13;;;13.63;;
3405;SDS011;10008;48.682;9.016;2022-10-19T02:08:33;24.80;;;13.13;;
3405;SDS011;10008;48.682;9.016;2022-10-19T02:11:04;27.23;;;14.63;;
3405;SDS011;10008;48.682;9.016;2022-10-19T02:13:30;32.30;;;16.70;;
3405;SDS011;10008;48.682;9.016;2022-10-19T02:15:58;31.70;;;16.00;;
3405;SDS011;10008;48.682;9.016;2022-10-19T02:18:28;28.20;;;15.67;;
3405;SDS011;10008;48.682;9.016;2022-10-19T02:20:59;28.20;;;14.87;;
3405;SDS011;10008;48.682;9.016;2022-10-19T02:23:27;25.80;;;13.47;;
3405;SDS011;10008;48.682;9.016;2022-10-19T02:25:53;22.33;;;13.20;;
3405;SDS011;10008;48.682;9.016;2022-10-19T02:28:25;24.97;;;14.43;;
3405;SDS011;10008;48.682;9.016;2022-10-19T02:30:52;34.53;;;16.43;;
3405;SDS011;10008;48.682;9.016;2022-10-19T02:33:18;32.23;;;16.23;;
3405;SDS011;10008;48.682;9.016;2022-10-19T02:35:44;35.67;;;16.60;;
3405;SDS011;10008;48.682;9.016;2022-10-19T02:38:10;43.40;;;15.90;;
3405;SDS011;10008;48.682;9.016;2022-10-19T02:40:40;49.37;;;18.80;;
3405;SDS011;10008;48.682;9.016;2022-10-19T02:43:13;79.67;;;21.33;;
3405;SDS011;10008;48.682;9.016;2022-10-19T02:45:47;54.73;;;21.33;;
3405;SDS011;10008;48.682;9.016;2022-10-19T02:48:19;56.40;;;19.90;;
3405;SDS011;10008;48.682;9.016;2022-10-19T02:50:47;69.73;;;23.17;;
3405;SDS011;10008;48.682;9.016;2022-10-19T02:53:13;73.60;;;23.37;;
3405;SDS011;10008;48.682;9.016;2022-10-19T02:55:40;48.63;;;19.77;;
3405;SDS011;10008;48.682;9.016;2022-10-19T02:58:07;42.07;;;19.93;;
3405;SDS011;10008;48.682;9.016;2022-10-19T03:00:33;45.07;;;19.77;;
3405;SDS011;10008;48.682;9.016;2022-10-19T03:02:59;58.10;;;22.33;;
3405;SDS011;10008;48.682;9.016;2022-10-19T03:05:24;75.50;;;24.00;;
3405;SDS011;10008;48.682;9.016;2022-10-19T03:07:50;91.77;;;24.80;;
3405;SDS011;10008;48.682;9.016;2022-10-19T03:10:16;66.30;;;21.97;;
3405;SDS011;10008;48.682;9.016;2022-10-19T03:12:42;56.63;;;21.73;;
3405;SDS011;10008;48.682;9.016;2022-10-19T03:15:08;71.60;;;23.40;;
3405;SDS011;10008;48.682;9.016;2022-10-19T03:17:38;52.43;;;20.13;;
3405;SDS011;10008;48.682;9.016;2022-10-19T03:20:04;51.97;;;21.30;;
3405;SDS011;10008;48.682;9.016;2022-10-19T03:22:30;44.83;;;19.07;;
3405;SDS011;10008;48.682;9.016;2022-10-19T03:24:56;48.87;;;20.73;;
3405;SDS011;10008;48.682;9.016;2022-10-19T03:27:22;55.33;;;19.97;;
3405;SDS011;10008;48.682;9.016;2022-10-19T03:29:47;51.80;;;21.00;;
3405;SDS011;10008;48.682;9.016;2022-10-19T03:32:13;54.03;;;19.90;;
3405;SDS011;10008;48.682;9.016;2022-10-19T03:34:39;49.90;;;21.63;;
3405;SDS011;10008;48.682;9.016;2022-10-19T03:37:05;58.70;;;22.33;;
3405;SDS011;10008;48.682;9.016;2022-10-19T03:39:32;75.70;;;24.47;;
3405;SDS011;10008;48.682;9.016;2022-10-19T03:41:59;67.07;;;22.10;;
3405;SDS011;10008;48.682;9.016;2022-10-19T03:44:24;83.13;;;24.43;;
3405;SDS011;10008;48.682;9.016;2022-10-19T03:46:50;71.97;;;23.80;;
3405;SDS011;10008;48.682;9.016;2022-10-19T03:49:16;78.17;;;24.03;;
3405;SDS011;10008;48.682;9.016;2022-10-19T03:51:42;82.10;;;25.03;;
3405;SDS011;10008;48.682;9.016;2022-10-19T03:54:12;73.37;;;23.50;;
3405;SDS011;10008;48.682;9.016;2022-10-19T03:56:39;68.07;;;23.97;;
3405;SDS011;10008;48.682;9.016;2022-10-19T03:59:05;73.17;;;23.80;;
3405;SDS011;10008;48.682;9.016;2022-10-19T04:01:36;73.20;;;24.00;;
3405;SDS011;10008;48.682;9.016;2022-10-19T04:04:04;81.37;;;25.17;;
3405;SDS011;10008;48.682;9.016;2022-10-19T04:06:34;55.23;;;22.30;;
3405;SDS011;10008;48.682;9.016;2022-10-19T04:09:02;53.00;;;23.80;;
3405;SDS011;10008;48.682;9.016;2022-10-19T04:11:29;54.53;;;22.00;;
3405;SDS011;10008;48.682;9.016;2022-10-19T04:13:56;69.60;;;24.03;;
3405;SDS011;10008;48.682;9.016;2022-10-19T04:16:23;59.17;;;22.27;;
3405;SDS011;10008;48.682;9.016;2022-10-19T04:18:50;52.83;;;22.00;;
3405;SDS011;10008;48.682;9.016;2022-10-19T04:21:20;66.20;;;24.30;;
3405;SDS011;10008;48.682;9.016;2022-10-19T04:23:48;59.17;;;21.97;;
3405;SDS011;10008;48.682;9.016;2022-10-19T04:26:15;50.33;;;20.47;;
3405;SDS011;10008;48.682;9.016;2022-10-19T04:28:41;47.20;;;20.07;;
3405;SDS011;10008;48.682;9.016;2022-10-19T04:31:07;48.90;;;20.10;;
3405;SDS011;10008;48.682;9.016;2022-10-19T04:33:33;52.30;;;21.20;;
3405;SDS011;10008;48.682;9.016;2022-10-19T04:35:59;45.40;;;20.07;;
3405;SDS011;10008;48.682;9.016;2022-10-19T04:38:35;43.80;;;19.23;;
3405;SDS011;10008;48.682;9.016;2022-10-19T04:41:06;57.13;;;21.30;;
3405;SDS011;10008;48.682;9.016;2022-10-19T04:43:33;44.70;;;19.10;;
3405;SDS011;10008;48.682;9.016;2022-10-19T04:46:03;43.43;;;20.20;;
3405;SDS011;10008;48.682;9.016;2022-10-19T04:48:34;43.10;;;20.57;;
3405;SDS011;10008;48.682;9.016;2022-10-19T04:51:00;49.33;;;20.23;;
3405;SDS011;10008;48.682;9.016;2022-10-19T04:53:26;50.53;;;20.97;;
3405;SDS011;10008;48.682;9.016;2022-10-19T04:55:52;63.20;;;23.77;;
3405;SDS011;10008;48.682;9.016;2022-10-19T04:58:18;49.60;;;20.80;;
3405;SDS011;10008;48.682;9.016;2022-10-19T05:00:44;54.97;;;21.30;;
3405;SDS011;10008;48.682;9.016;2022-10-19T05:03:10;52.87;;;20.77;;
3405;SDS011;10008;48.682;9.016;2022-10-19T05:05:35;50.77;;;21.23;;
3405;SDS011;10008;48.682;9.016;2022-10-19T05:08:01;57.23;;;21.47;;
3405;SDS011;10008;48.682;9.016;2022-10-19T05:10:27;66.63;;;24.40;;
3405;SDS011;10008;48.682;9.016;2022-10-19T05:12:53;57.77;;;23.43;;
3405;SDS011;10008;48.682;9.016;2022-10-19T05:15:18;72.10;;;25.77;;
3405;SDS011;10008;48.682;9.016;2022-10-19T05:17:44;59.40;;;23.93;;
3405;SDS011;10008;48.682;9.016;2022-10-19T05:20:10;49.67;;;21.50;;
3405;SDS011;10008;48.682;9.016;2022-10-19T05:22:37;52.23;;;21.63;;
3405;SDS011;10008;48.682;9.016;2022-10-19T05:25:03;57.37;;;20.97;;
3405;SDS011;10008;48.682;9.016;2022-10-19T05:27:29;51.30;;;21.27;;
3405;SDS011;10008;48.682;9.016;2022-10-19T05:29:55;52.20;;;21.20;;
3405;SDS011;10008;48.682;9.016;2022-10-19T05:32:21;63.73;;;23.43;;
3405;SDS011;10008;48.682;9.016;2022-10-19T05:34:46;49.60;;;21.13;;
3405;SDS011;10008;48.682;9.016;2022-10-19T05:37:12;56.87;;;23.10;;
3405;SDS011;10008;48.682;9.016;2022-10-19T05:39:38;55.77;;;22.60;;
3405;SDS011;10008;48.682;9.016;2022-10-19T05:42:04;53.00;;;20.97;;
3405;SDS011;10008;48.682;9.016;2022-10-19T05:44:29;56.07;;;23.57;;
3405;SDS011;10008;48.682;9.016;2022-10-19T05:46:55;64.37;;;25.00;;
3405;SDS011;10008;48.682;9.016;2022-10-19T05:49:21;58.43;;;23.63;;
3405;SDS011;10008;48.682;9.016;2022-10-19T05:51:47;57.53;;;22.40;;
3405;SDS011;10008;48.682;9.016;2022-10-19T05:54:13;61.17;;;24.40;;
3405;SDS011;10008;48.682;9.016;2022-10-19T05:56:40;66.63;;;23.63;;
3405;SDS011;10008;48.682;9.016;2022-10-19T05:59:07;54.30;;;22.80;;
3405;SDS011;10008;48.682;9.016;2022-10-19T06:01:35;63.00;;;23.97;;
3405;SDS011;10008;48.682;9.016;2022-10-19T06:04:01;66.43;;;24.37;;
3405;SDS011;10008;48.682;9.016;2022-10-19T06:06:29;51.50;;;23.10;;
3405;SDS011;10008;48.682;9.016;2022-10-19T06:08:55;63.83;;;24.97;;
3405;SDS011;10008;48.682;9.016;2022-10-19T06:11:22;59.23;;;24.00;;
3405;SDS011;10008;48.682;9.016;2022-10-19T06:13:57;56.37;;;22.57;;
3405;SDS011;10008;48.682;9.016;2022-10-19T06:16:24;56.80;;;22.93;;
3405;SDS011;10008;48.682;9.016;2022-10-19T06:18:51;59.80;;;24.07;;
3405;SDS011;10008;48.682;9.016;2022-10-19T06:21:19;60.57;;;24.73;;
3405;SDS011;10008;48.682;9.016;2022-10-19T06:23:53;69.63;;;25.67;;
3405;SDS011;10008;48.682;9.016;2022-10-19T06:26:20;62.93;;;24.10;;
3405;SDS011;10008;48.682;9.016;2022-10-19T06:28:47;64.80;;;24.80;;
3405;SDS011;10008;48.682;9.016;2022-10-19T06:31:13;58.67;;;23.00;;
3405;SDS011;10008;48.682;9.016;2022-10-19T06:33:40;56.40;;;19.67;;
3405;SDS011;10008;48.682;9.016;2022-10-19T06:36:08;44.33;;;18.60;;
3405;SDS011;10008;48.682;9.016;2022-10-19T06:38:38;50.20;;;19.20;;
3405;SDS011;10008;48.682;9.016;2022-10-19T06:41:05;54.23;;;20.10;;
3405;SDS011;10008;48.682;9.016;2022-10-19T06:43:31;58.20;;;19.00;;
3405;SDS011;10008;48.682;9.016;2022-10-19T06:45:58;56.47;;;20.87;;
3405;SDS011;10008;48.682;9.016;2022-10-19T06:48:31;87.50;;;19.90;;
3405;SDS011;10008;48.682;9.016;2022-10-19T06:51:00;63.37;;;17.97;;
3405;SDS011;10008;48.682;9.016;2022-10-19T06:53:28;65.00;;;19.30;;
3405;SDS011;10008;48.682;9.016;2022-10-19T06:55:58;44.63;;;17.73;;
3405;SDS011;10008;48.682;9.016;2022-10-19T06:58:26;37.43;;;16.20;;
3405;SDS011;10008;48.682;9.016;2022-10-19T07:00:58;50.43;;;17.83;;
3405;SDS011;10008;48.682;9.016;2022-10-19T07:03:26;33.27;;;15.83;;
3405;SDS011;10008;48.682;9.016;2022-10-19T07:05:54;39.87;;;16.53;;
3405;SDS011;10008;48.682;9.016;2022-10-19T07:08:21;89.00;;;18.80;;
3405;SDS011;10008;48.682;9.016;2022-10-19T07:10:49;52.10;;;19.07;;
3405;SDS011;10008;48.682;9.016;2022-10-19T07:13:16;55.13;;;19.40;;
3405;SDS011;10008;48.682;9.016;2022-10-19T07:15:42;57.40;;;19.23;;
3405;SDS011;10008;48.682;9.016;2022-10-19T07:18:07;43.23;;;18.27;;
3405;SDS011;10008;48.682;9.016;2022-10-19T07:20:33;56.37;;;21.00;;
3405;SDS011;10008;48.682;9.016;2022-10-19T07:22:59;35.60;;;18.63;;
3405;SDS011;10008;48.682;9.016;2022-10-19T07:25:24;69.60;;;35.30;;
3405;SDS011;10008;48.682;9.016;2022-10-19T07:27:50;50.77;;;22.43;;
3405;SDS011;10008;48.682;9.016;2022-10-19T07:30:16;55.80;;;22.53;;
3405;SDS011;10008;48.682;9.016;2022-10-19T07:32:42;50.60;;;22.97;;
3405;SDS011;10008;48.682;9.016;2022-10-19T07:35:08;43.80;;;21.07;;
3405;SDS011;10008;48.682;9.016;2022-10-19T07:37:34;39.53;;;19.10;;
3405;SDS011;10008;48.682;9.016;2022-10-19T07:39:59;41.47;;;19.67;;
3405;SDS011;10008;48.682;9.016;2022-10-19T07:42:27;42.23;;;20.43;;
3405;SDS011;10008;48.682;9.016;2022-10-19T07:44:54;31.37;;;17.43;;
3405;SDS011;10008;48.682;9.016;2022-10-19T07:47:20;28.70;;;16.13;;
3405;SDS011;10008;48.682;9.016;2022-10-19T07:49:46;28.53;;;16.67;;
3405;SDS011;10008;48.682;9.016;2022-10-19T07:52:12;22.87;;;14.47;;
3405;SDS011;10008;48.682;9.016;2022-10-19T07:54:37;25.80;;;15.23;;
3405;SDS011;10008;48.682;9.016;2022-10-19T07:57:03;26.93;;;15.63;;
3405;SDS011;10008;48.682;9.016;2022-10-19T07:59:29;26.00;;;15.37;;
3405;SDS011;10008;48.682;9.016;2022-10-19T08:01:54;24.00;;;14.57;;
3405;SDS011;10008;48.682;9.016;2022-10-19T08:04:21;25.60;;;14.80;;
3405;SDS011;10008;48.682;9.016;2022-10-19T08:06:47;26.97;;;14.77;;
3405;SDS011;10008;48.682;9.016;2022-10-19T08:09:13;26.13;;;15.47;;
3405;SDS011;10008;48.682;9.016;2022-10-19T08:11:39;26.80;;;14.33;;
3405;SDS011;10008;48.682;9.016;2022-10-19T08:14:05;23.27;;;14.03;;
3405;SDS011;10008;48.682;9.016;2022-10-19T08:16:34;25.40;;;14.40;;
3405;SDS011;10008;48.682;9.016;2022-10-19T08:19:06;20.83;;;13.10;;
3405;SDS011;10008;48.682;9.016;2022-10-19T08:21:34;21.13;;;13.20;;
3405;SDS011;10008;48.682;9.016;2022-10-19T08:24:00;21.97;;;13.77;;
3405;SDS011;10008;48.682;9.016;2022-10-19T08:26:27;20.70;;;13.90;;
3405;SDS011;10008;48.682;9.016;2022-10-19T08:28:57;21.53;;;13.87;;
3405;SDS011;10008;48.682;9.016;2022-10-19T08:31:28;21.33;;;13.47;;
3405;SDS011;10008;48.682;9.016;2022-10-19T08:33:54;19.17;;;12.70;;
3405;SDS011;10008;48.682;9.016;2022-10-19T08:36:20;19.30;;;12.77;;
3405;SDS011;10008;48.682;9.016;2022-10-19T08:38:46;19.13;;;12.63;;
3405;SDS011;10008;48.682;9.016;2022-10-19T08:41:25;23.30;;;12.63;;
3405;SDS011;10008;48.682;9.016;2022-10-19T08:47:31;20.20;;;12.47;;
3405;SDS011;10008;48.682;9.016;2022-10-19T08:49:52;18.93;;;11.80;;
3405;SDS011;10008;48.682;9.016;2022-10-19T08:52:27;19.83;;;12.20;;
3405;SDS011;10008;48.682;9.016;2022-10-19T08:54:57;17.83;;;12.17;;
3405;SDS011;10008;48.682;9.016;2022-10-19T09:04:14;20.57;;;13.30;;
3405;SDS011;10008;48.682;9.016;2022-10-19T09:07:06;18.97;;;12.87;;
3405;SDS011;10008;48.682;9.016;2022-10-19T09:09:21;18.10;;;12.13;;
3405;SDS011;10008;48.682;9.016;2022-10-19T09:11:48;20.90;;;12.40;;
3405;SDS011;10008;48.682;9.016;2022-10-19T09:17:12;21.80;;;13.53;;
3405;SDS011;10008;48.682;9.016;2022-10-19T09:19:41;21.53;;;13.60;;
3405;SDS011;10008;48.682;9.016;2022-10-19T09:22:08;22.13;;;13.40;;
3405;SDS011;10008;48.682;9.016;2022-10-19T09:24:59;20.37;;;13.20;;
3405;SDS011;10008;48.682;9.016;2022-10-19T09:27:33;20.50;;;11.60;;
3405;SDS011;10008;48.682;9.016;2022-10-19T09:30:03;19.67;;;12.83;;
3405;SDS011;10008;48.682;9.016;2022-10-19T09:32:41;21.00;;;12.63;;
3405;SDS011;10008;48.682;9.016;2022-10-19T09:37:51;18.83;;;13.00;;
3405;SDS011;10008;48.682;9.016;2022-10-19T09:40:23;19.23;;;12.40;;
3405;SDS011;10008;48.682;9.016;2022-10-19T09:42:53;20.00;;;12.50;;
3405;SDS011;10008;48.682;9.016;2022-10-19T09:48:15;17.53;;;11.90;;
3405;SDS011;10008;48.682;9.016;2022-10-19T09:50:53;19.83;;;13.23;;
3405;SDS011;10008;48.682;9.016;2022-10-19T09:53:24;18.53;;;13.50;;
3405;SDS011;10008;48.682;9.016;2022-10-19T09:56:04;17.97;;;11.87;;
3405;SDS011;10008;48.682;9.016;2022-10-19T09:58:31;17.73;;;13.10;;
3405;SDS011;10008;48.682;9.016;2022-10-19T10:00:59;18.97;;;12.53;;
3405;SDS011;10008;48.682;9.016;2022-10-19T10:03:31;20.30;;;13.57;;
3405;SDS011;10008;48.682;9.016;2022-10-19T10:06:07;20.53;;;13.00;;
3405;SDS011;10008;48.682;9.016;2022-10-19T10:08:48;21.67;;;14.73;;
3405;SDS011;10008;48.682;9.016;2022-10-19T10:11:22;25.13;;;17.60;;
3405;SDS011;10008;48.682;9.016;2022-10-19T10:13:55;22.97;;;16.27;;
3405;SDS011;10008;48.682;9.016;2022-10-19T10:16:27;23.63;;;17.63;;
3405;SDS011;10008;48.682;9.016;2022-10-19T10:21:28;22.73;;;17.10;;
3405;SDS011;10008;48.682;9.016;2022-10-19T10:26:43;24.63;;;18.10;;
3405;SDS011;10008;48.682;9.016;2022-10-19T10:31:45;24.00;;;17.87;;
3405;SDS011;10008;48.682;9.016;2022-10-19T10:37:00;19.80;;;15.43;;
3405;SDS011;10008;48.682;9.016;2022-10-19T10:39:29;19.20;;;15.00;;
3405;SDS011;10008;48.682;9.016;2022-10-19T10:41:55;18.10;;;14.10;;
3405;SDS011;10008;48.682;9.016;2022-10-19T10:44:30;19.10;;;14.07;;
3405;SDS011;10008;48.682;9.016;2022-10-19T10:46:59;16.03;;;12.67;;
3405;SDS011;10008;48.682;9.016;2022-10-19T10:49:28;16.80;;;13.37;;
3405;SDS011;10008;48.682;9.016;2022-10-19T10:54:37;17.40;;;12.93;;
3405;SDS011;10008;48.682;9.016;2022-10-19T10:59:48;10.77;;;7.83;;
3405;SDS011;10008;48.682;9.016;2022-10-19T11:08:11;10.33;;;7.50;;
3405;SDS011;10008;48.682;9.016;2022-10-19T11:13:43;10.37;;;7.30;;
3405;SDS011;10008;48.682;9.016;2022-10-19T11:16:16;12.37;;;8.13;;
3405;SDS011;10008;48.682;9.016;2022-10-19T11:18:51;8.20;;;6.20;;
3405;SDS011;10008;48.682;9.016;2022-10-19T11:21:31;11.20;;;6.30;;
3405;SDS011;10008;48.682;9.016;2022-10-19T11:40:37;6.60;;;4.70;;
3405;SDS011;10008;48.682;9.016;2022-10-19T11:43:29;7.17;;;4.53;;
3405;SDS011;10008;48.682;9.016;2022-10-19T11:49:02;6.40;;;4.13;;
3405;SDS011;10008;48.682;9.016;2022-10-19T11:59:45;8.37;;;4.27;;
3405;SDS011;10008;48.682;9.016;2022-10-19T12:02:19;7.90;;;4.77;;
3405;SDS011;10008;48.682;9.016;2022-10-19T12:10:28;6.87;;;4.50;;
3405;SDS011;10008;48.682;9.016;2022-10-19T12:13:42;7.43;;;4.77;;
3405;SDS011;10008;48.682;9.016;2022-10-19T12:16:15;6.20;;;4.00;;
3405;SDS011;10008;48.682;9.016;2022-10-19T12:18:45;6.20;;;4.00;;
3405;SDS011;10008;48.682;9.016;2022-10-19T12:21:25;7.77;;;3.93;;
3405;SDS011;10008;48.682;9.016;2022-10-19T12:23:55;7.27;;;4.10;;
3405;SDS011;10008;48.682;9.016;2022-10-19T12:26:22;7.83;;;4.00;;
3405;SDS011;10008;48.682;9.016;2022-10-19T12:28:52;8.37;;;4.70;;
3405;SDS011;10008;48.682;9.016;2022-10-19T12:31:25;7.70;;;4.20;;
3405;SDS011;10008;48.682;9.016;2022-10-19T12:36:56;6.73;;;4.30;;
3405;SDS011;10008;48.682;9.016;2022-10-19T12:39:45;8.10;;;4.90;;
3405;SDS011;10008;48.682;9.016;2022-10-19T12:56:04;8.40;;;5.53;;
3405;SDS011;10008;48.682;9.016;2022-10-19T13:01:27;9.30;;;7.13;;
3405;SDS011;10008;48.682;9.016;2022-10-19T13:04:14;12.13;;;7.70;;
3405;SDS011;10008;48.682;9.016;2022-10-19T13:09:25;8.80;;;6.20;;
3405;SDS011;10008;48.682;9.016;2022-10-19T13:14:47;9.57;;;6.40;;
3405;SDS011;10008;48.682;9.016;2022-10-19T13:22:41;9.80;;;7.37;;
3405;SDS011;10008;48.682;9.016;2022-10-19T13:27:46;9.50;;;6.40;;
3405;SDS011;10008;48.682;9.016;2022-10-19T13:41:04;10.90;;;7.93;;
3405;SDS011;10008;48.682;9.016;2022-10-19T13:46:16;9.60;;;6.97;;
3405;SDS011;10008;48.682;9.016;2022-10-19T13:57:29;10.40;;;7.50;;
3405;SDS011;10008;48.682;9.016;2022-10-19T14:09:14;10.20;;;7.67;;
3405;SDS011;10008;48.682;9.016;2022-10-19T14:11:52;11.67;;;7.40;;
3405;SDS011;10008;48.682;9.016;2022-10-19T14:14:43;9.13;;;6.50;;
3405;SDS011;10008;48.682;9.016;2022-10-19T14:17:16;10.80;;;7.27;;
3405;SDS011;10008;48.682;9.016;2022-10-19T14:19:44;9.30;;;7.10;;
3405;SDS011;10008;48.682;9.016;2022-10-19T14:24:51;9.33;;;7.00;;
3405;SDS011;10008;48.682;9.016;2022-10-19T14:27:23;10.53;;;7.90;;
3405;SDS011;10008;48.682;9.016;2022-10-19T14:29:50;9.90;;;6.90;;
3405;SDS011;10008;48.682;9.016;2022-10-19T14:32:20;10.03;;;7.27;;
3405;SDS011;10008;48.682;9.016;2022-10-19T14:34:50;12.20;;;8.23;;
3405;SDS011;10008;48.682;9.016;2022-10-19T14:37:20;11.13;;;8.07;;
3405;SDS011;10008;48.682;9.016;2022-10-19T14:42:37;11.13;;;7.50;;
3405;SDS011;10008;48.682;9.016;2022-10-19T14:45:12;10.60;;;6.70;;
3405;SDS011;10008;48.682;9.016;2022-10-19T14:48:05;10.40;;;7.43;;
3405;SDS011;10008;48.682;9.016;2022-10-19T14:50:41;9.43;;;6.17;;
3405;SDS011;10008;48.682;9.016;2022-10-19T14:55:44;8.17;;;6.40;;
3405;SDS011;10008;48.682;9.016;2022-10-19T14:58:12;8.93;;;6.33;;
3405;SDS011;10008;48.682;9.016;2022-10-19T15:00:42;8.13;;;5.73;;
3405;SDS011;10008;48.682;9.016;2022-10-19T15:03:11;7.50;;;5.33;;
3405;SDS011;10008;48.682;9.016;2022-10-19T15:05:47;9.90;;;6.13;;
3405;SDS011;10008;48.682;9.016;2022-10-19T15:11:06;8.67;;;5.83;;
3405;SDS011;10008;48.682;9.016;2022-10-19T15:13:49;8.70;;;5.83;;
3405;SDS011;10008;48.682;9.016;2022-10-19T15:16:48;12.30;;;6.83;;
3405;SDS011;10008;48.682;9.016;2022-10-19T15:24:39;9.83;;;7.37;;
3405;SDS011;10008;48.682;9.016;2022-10-19T15:27:19;9.27;;;7.20;;
3405;SDS011;10008;48.682;9.016;2022-10-19T15:29:57;10.40;;;6.70;;
3405;SDS011;10008;48.682;9.016;2022-10-19T15:32:25;10.40;;;7.70;;
3405;SDS011;10008;48.682;9.016;2022-10-19T15:35:06;12.83;;;6.90;;
3405;SDS011;10008;48.682;9.016;2022-10-19T15:37:37;12.13;;;8.60;;
3405;SDS011;10008;48.682;9.016;2022-10-19T15:40:28;9.60;;;7.77;;
3405;SDS011;10008;48.682;9.016;2022-10-19T15:43:00;11.30;;;7.80;;
3405;SDS011;10008;48.682;9.016;2022-10-19T15:45:45;10.10;;;7.67;;
3405;SDS011;10008;48.682;9.016;2022-10-19T15:50:48;10.27;;;7.20;;
3405;SDS011;10008;48.682;9.016;2022-10-19T15:53:16;13.50;;;8.07;;
3405;SDS011;10008;48.682;9.016;2022-10-19T15:55:42;9.27;;;7.37;;
3405;SDS011;10008;48.682;9.016;2022-10-19T15:58:11;10.40;;;7.20;;
3405;SDS011;10008;48.682;9.016;2022-10-19T16:00:38;10.80;;;7.37;;
3405;SDS011;10008;48.682;9.016;2022-10-19T16:03:04;14.90;;;8.20;;
3405;SDS011;10008;48.682;9.016;2022-10-19T16:05:30;11.70;;;8.30;;
3405;SDS011;10008;48.682;9.016;2022-10-19T16:07:56;11.43;;;8.57;;
3405;SDS011;10008;48.682;9.016;2022-10-19T16:10:23;11.73;;;7.90;;
3405;SDS011;10008;48.682;9.016;2022-10-19T16:12:51;11.33;;;8.80;;
3405;SDS011;10008;48.682;9.016;2022-10-19T16:15:18;11.07;;;9.00;;
3405;SDS011;10008;48.682;9.016;2022-10-19T16:17:51;9.87;;;7.70;;
3405;SDS011;10008;48.682;9.016;2022-10-19T16:20:22;13.70;;;7.90;;
3405;SDS011;10008;48.682;9.016;2022-10-19T16:22:49;14.00;;;9.03;;
3405;SDS011;10008;48.682;9.016;2022-10-19T16:25:16;12.77;;;8.70;;
3405;SDS011;10008;48.682;9.016;2022-10-19T16:27:42;11.37;;;9.07;;
3405;SDS011;10008;48.682;9.016;2022-10-19T16:30:08;13.97;;;9.10;;
3405;SDS011;10008;48.682;9.016;2022-10-19T16:32:34;13.67;;;10.37;;
3405;SDS011;10008;48.682;9.016;2022-10-19T16:35:00;13.80;;;10.90;;
3405;SDS011;10008;48.682;9.016;2022-10-19T16:37:26;15.87;;;11.23;;
3405;SDS011;10008;48.682;9.016;2022-10-19T16:39:52;14.90;;;10.57;;
3405;SDS011;10008;48.682;9.016;2022-10-19T16:42:17;13.17;;;11.10;;
3405;SDS011;10008;48.682;9.016;2022-10-19T16:44:43;14.63;;;12.13;;
3405;SDS011;10008;48.682;9.016;2022-10-19T16:47:09;16.63;;;11.10;;
3405;SDS011;10008;48.682;9.016;2022-10-19T16:49:34;13.20;;;10.43;;
3405;SDS011;10008;48.682;9.016;2022-10-19T16:52:00;14.90;;;11.07;;
3405;SDS011;10008;48.682;9.016;2022-10-19T16:54:26;15.57;;;11.73;;
3405;SDS011;10008;48.682;9.016;2022-10-19T16:56:57;15.77;;;12.20;;
3405;SDS011;10008;48.682;9.016;2022-10-19T16:59:22;17.23;;;13.13;;
3405;SDS011;10008;48.682;9.016;2022-10-19T17:01:48;14.20;;;11.30;;
3405;SDS011;10008;48.682;9.016;2022-10-19T17:04:15;15.03;;;12.03;;
3405;SDS011;10008;48.682;9.016;2022-10-19T17:06:42;14.67;;;11.50;;
3405;SDS011;10008;48.682;9.016;2022-10-19T17:09:08;13.07;;;11.03;;
3405;SDS011;10008;48.682;9.016;2022-10-19T17:11:34;17.10;;;10.87;;
3405;SDS011;10008;48.682;9.016;2022-10-19T17:14:02;19.87;;;12.73;;
3405;SDS011;10008;48.682;9.016;2022-10-19T17:16:35;16.07;;;13.33;;
3405;SDS011;10008;48.682;9.016;2022-10-19T17:19:02;24.60;;;17.73;;
3405;SDS011;10008;48.682;9.016;2022-10-19T17:21:30;17.23;;;12.10;;
3405;SDS011;10008;48.682;9.016;2022-10-19T17:23:58;14.40;;;11.43;;
3405;SDS011;10008;48.682;9.016;2022-10-19T17:26:36;15.13;;;12.20;;
3405;SDS011;10008;48.682;9.016;2022-10-19T17:29:04;15.13;;;10.60;;
3405;SDS011;10008;48.682;9.016;2022-10-19T17:31:30;18.37;;;12.13;;
3405;SDS011;10008;48.682;9.016;2022-10-19T17:33:56;15.37;;;11.70;;
3405;SDS011;10008;48.682;9.016;2022-10-19T17:36:26;18.83;;;12.87;;
3405;SDS011;10008;48.682;9.016;2022-10-19T17:38:54;18.07;;;11.07;;
3405;SDS011;10008;48.682;9.016;2022-10-19T17:41:21;12.23;;;9.73;;
3405;SDS011;10008;48.682;9.016;2022-10-19T17:43:48;17.23;;;11.50;;
3405;SDS011;10008;48.682;9.016;2022-10-19T17:46:16;18.13;;;11.60;;
3405;SDS011;10008;48.682;9.016;2022-10-19T17:48:44;18.50;;;11.47;;
3405;SDS011;10008;48.682;9.016;2022-10-19T17:51:13;17.17;;;13.20;;
3405;SDS011;10008;48.682;9.016;2022-10-19T17:53:52;20.70;;;11.83;;
3405;SDS011;10008;48.682;9.016;2022-10-19T17:56:20;18.87;;;12.30;;